Time;durP1;ratioP1;P1;durP2;ratioP2;P2;SDS_P1;SDS_P2;PMS_P1;PMS_P2;Temp;Humidity;BMP_temperature;BMP_pressure;BME280_temperature;BME280_humidity;BME280_pressure;Samples;Min_cycle;Max_cycle;Signal;HPM_P1;HPM_P2
2023/01/05 00:01:32;;;;;;;67.90;9.40;;;7.60;99.90;;;;;;4976631;28;20489;-68
2023/01/05 00:03:57;;;;;;;45.17;6.50;;;7.60;99.90;;;;;;4977106;28;20102;-68
2023/01/05 00:06:23;;;;;;;42.63;7.03;;;7.60;99.90;;;;;;4977457;28;20053;-68
2023/01/05 00:08:48;;;;;;;40.63;7.07;;;7.60;99.90;;;;;;4977306;28;20027;-68
2023/01/05 00:22:30;;;;;;;;;;;7.50;99.90;;;;;;4977778;28;20502;-68
2023/01/05 00:24:56;;;;;;;44.85;6.85;;;7.50;99.90;;;;;;4977138;28;20366;-68
2023/01/05 00:27:21;;;;;;;52.28;7.55;;;7.50;99.90;;;;;;4976880;28;20497;-68
2023/01/05 00:29:47;;;;;;;60.97;6.75;;;7.50;99.90;;;;;;4976900;28;20030;-68
2023/01/05 00:32:12;;;;;;;53.75;6.72;;;7.50;99.90;;;;;;4976915;28;20121;-68
2023/01/05 00:34:38;;;;;;;65.50;7.93;;;7.50;99.90;;;;;;4976759;28;20031;-68
2023/01/05 00:37:03;;;;;;;42.65;5.53;;;7.60;99.90;;;;;;4977013;28;20557;-68
2023/01/05 00:39:29;;;;;;;51.67;6.65;;;7.60;99.90;;;;;;4977079;28;20022;-68
2023/01/05 00:41:54;;;;;;;51.42;6.35;;;7.70;99.90;;;;;;4976822;28;20027;-68
2023/01/05 00:44:20;;;;;;;46.13;5.72;;;7.70;99.90;;;;;;4976630;28;20030;-68
2023/01/05 00:46:45;;;;;;;45.58;6.25;;;7.80;99.90;;;;;;4976266;28;20030;-69
2023/01/05 00:49:11;;;;;;;59.50;6.00;;;7.80;99.90;;;;;;4977110;28;20073;-68
2023/01/05 00:51:36;;;;;;;49.35;5.85;;;7.80;99.90;;;;;;4977099;28;20027;-68
2023/01/05 00:54:02;;;;;;;41.20;5.07;;;7.80;99.90;;;;;;4976485;28;20035;-68
2023/01/05 00:56:28;;;;;;;32.33;4.63;;;7.80;99.90;;;;;;4976600;28;20462;-68
2023/01/05 00:58:54;;;;;;;35.05;5.40;;;7.80;99.90;;;;;;4976385;28;20094;-68
2023/01/05 01:01:19;;;;;;;51.63;5.40;;;7.80;99.90;;;;;;4976504;28;20372;-68
2023/01/05 01:03:45;;;;;;;41.35;6.38;;;7.80;99.90;;;;;;4976533;28;20061;-68
2023/01/05 01:06:12;;;;;;;40.45;6.22;;;7.80;99.90;;;;;;4976263;28;20035;-68
2023/01/05 01:08:38;;;;;;;52.40;7.88;;;7.80;99.90;;;;;;4976276;28;20023;-69
2023/01/05 01:11:08;;;;;;;42.13;6.97;;;7.80;99.90;;;;;;4976046;28;20030;-68
2023/01/05 01:13:34;;;;;;;43.40;6.13;;;7.80;99.90;;;;;;4976132;28;20030;-68
2023/01/05 01:16:11;;;;;;;51.03;5.65;;;7.80;99.90;;;;;;4976056;28;20467;-68
2023/01/05 01:18:37;;;;;;;42.95;4.72;;;7.80;99.90;;;;;;4976224;28;20031;-69
2023/01/05 01:21:02;;;;;;;38.13;4.32;;;7.90;99.90;;;;;;4975983;28;20027;-68
2023/01/05 01:23:28;;;;;;;37.17;4.22;;;7.90;99.90;;;;;;4975979;28;20396;-69
2023/01/05 01:25:55;;;;;;;35.63;4.85;;;7.90;99.90;;;;;;4975797;28;20030;-68
2023/01/05 01:28:21;;;;;;;41.58;6.43;;;7.80;99.90;;;;;;4976049;28;20027;-68
2023/01/05 01:30:47;;;;;;;35.60;4.82;;;7.80;99.90;;;;;;4976107;28;20038;-69
2023/01/05 01:33:12;;;;;;;60.10;7.28;;;7.70;99.90;;;;;;4975763;28;20030;-68
2023/01/05 01:35:38;;;;;;;47.35;6.05;;;7.70;99.90;;;;;;4975657;28;20030;-69
2023/01/05 01:38:04;;;;;;;41.78;5.45;;;7.70;99.90;;;;;;4975579;28;20030;-68
2023/01/05 01:40:29;;;;;;;28.45;4.15;;;7.70;99.90;;;;;;4975735;28;20058;-68
2023/01/05 01:42:55;;;;;;;37.25;4.82;;;7.70;99.90;;;;;;4975659;28;20030;-68
2023/01/05 01:45:24;;;;;;;39.05;4.85;;;7.80;99.90;;;;;;4975394;28;20035;-68
2023/01/05 01:47:57;;;;;;;38.03;3.78;;;7.90;99.90;;;;;;4975333;28;20148;-69
2023/01/05 01:50:46;;;;;;;23.13;4.20;;;7.90;99.90;;;;;;4975495;28;20053;-68
2023/01/05 01:53:26;;;;;;;54.70;5.18;;;7.80;99.90;;;;;;4975851;28;20378;-69
2023/01/05 01:55:54;;;;;;;38.47;5.68;;;7.90;99.90;;;;;;4975794;28;20023;-68
2023/01/05 01:58:24;;;;;;;44.20;4.80;;;7.80;99.90;;;;;;4975443;28;20037;-68
2023/01/05 02:00:50;;;;;;;39.42;6.32;;;7.70;99.90;;;;;;4975407;28;20123;-68
2023/01/05 02:03:16;;;;;;;51.25;6.95;;;7.70;99.90;;;;;;4975553;28;20031;-68
2023/01/05 02:05:41;;;;;;;45.75;6.80;;;7.70;99.90;;;;;;4975460;28;20106;-69
2023/01/05 02:08:12;;;;;;;46.13;5.38;;;7.60;99.90;;;;;;4974956;28;20110;-68
2023/01/05 02:11:01;;;;;;;54.65;7.35;;;7.60;99.90;;;;;;4975049;28;20500;-68
2023/01/05 02:13:36;;;;;;;47.50;6.75;;;7.70;99.90;;;;;;4975113;28;20023;-69
2023/01/05 02:16:04;;;;;;;55.15;6.50;;;7.70;99.90;;;;;;4974772;28;20467;-68
2023/01/05 02:18:55;;;;;;;57.85;5.22;;;7.70;99.90;;;;;;4975258;28;20463;-68
2023/01/05 02:21:34;;;;;;;45.88;5.47;;;7.70;99.90;;;;;;4975025;28;20029;-68
2023/01/05 02:24:08;;;;;;;48.88;7.15;;;7.70;99.90;;;;;;4974515;28;20391;-68
2023/01/05 02:27:04;;;;;;;32.38;5.45;;;7.70;99.90;;;;;;4975051;28;20062;-69
2023/01/05 02:29:54;;;;;;;31.17;4.97;;;7.70;99.90;;;;;;4968827;28;20506;-68
2023/01/05 02:32:27;;;;;;;35.55;4.57;;;7.80;99.90;;;;;;4965520;28;20027;-68
2023/01/05 02:35:11;;;;;;;31.63;5.85;;;7.70;99.90;;;;;;4974759;28;20030;-68
2023/01/05 02:37:39;;;;;;;;;;;7.80;99.90;;;;;;4975102;28;20507;-68
2023/01/05 02:40:12;;;;;;;35.38;5.18;;;7.80;99.90;;;;;;4974925;28;19949;-68
2023/01/05 02:42:40;;;;;;;32.88;5.20;;;7.80;99.90;;;;;;4974701;28;20487;-69
2023/01/05 02:45:07;;;;;;;44.20;4.28;;;7.80;99.90;;;;;;4974657;28;20038;-68
2023/01/05 02:47:38;;;;;;;44.58;5.47;;;7.90;99.90;;;;;;4974544;28;20026;-68
2023/01/05 02:50:11;;;;;;;34.97;4.85;;;7.90;99.90;;;;;;4974296;28;20505;-68
2023/01/05 02:53:05;;;;;;;40.28;4.95;;;7.90;99.90;;;;;;4974911;28;20035;-68
2023/01/05 02:55:45;;;;;;;45.60;6.03;;;8.00;99.90;;;;;;4974598;28;20541;-69
2023/01/05 02:58:18;;;;;;;47.33;6.78;;;8.00;99.90;;;;;;4974736;28;20037;-69
2023/01/05 03:00:52;;;;;;;46.93;6.70;;;8.00;99.90;;;;;;4974631;28;20118;-68
2023/01/05 03:03:42;;;;;;;41.75;6.25;;;8.00;99.90;;;;;;4974833;28;20031;-68
2023/01/05 03:06:13;;;;;;;50.88;6.90;;;8.00;99.90;;;;;;4955718;28;20486;-68
2023/01/05 03:08:48;;;;;;;47.83;6.35;;;8.00;99.90;;;;;;4955469;29;20114;-68
2023/01/05 03:14:06;;;;;;;48.08;8.90;;;8.00;99.90;;;;;;4955067;29;20038;-69
2023/01/05 03:16:35;;;;;;;40.08;6.85;;;8.00;99.90;;;;;;4955084;28;20127;-68
2023/01/05 03:35:42;;;;;;;46.75;6.13;;;7.90;99.90;;;;;;4974530;28;20078;-68
2023/01/05 03:38:38;;;;;;;43.17;7.05;;;7.90;99.90;;;;;;4977971;28;20030;-69
2023/01/05 03:41:08;;;;;;;49.95;6.10;;;7.90;99.90;;;;;;4977392;28;20105;-69
2023/01/05 03:43:35;;;;;;;49.42;6.47;;;7.90;99.90;;;;;;4977839;28;20019;-69
2023/01/05 03:46:09;;;;;;;44.85;6.43;;;7.80;99.90;;;;;;4977567;28;20086;-68
2023/01/05 03:48:35;;;;;;;34.83;5.20;;;7.80;99.90;;;;;;4999957;23;20053;-70
2023/01/05 03:51:00;;;;;;;50.85;6.50;;;7.80;99.90;;;;;;4977735;28;20206;-69
2023/01/05 03:53:26;;;;;;;36.65;4.78;;;7.80;99.90;;;;;;4977447;28;20474;-70
2023/01/05 03:55:52;;;;;;;54.15;5.47;;;7.90;99.90;;;;;;4977542;28;20427;-69
2023/01/05 03:58:17;;;;;;;44.03;6.05;;;7.90;99.90;;;;;;4977270;28;20394;-70
2023/01/05 04:00:43;;;;;;;47.38;6.28;;;8.00;99.90;;;;;;4977228;28;20034;-69
2023/01/05 04:03:09;;;;;;;61.53;7.78;;;8.00;99.90;;;;;;4977456;28;20023;-69
2023/01/05 04:05:35;;;;;;;38.50;4.97;;;8.00;99.90;;;;;;4977170;28;20022;-70
2023/01/05 04:08:01;;;;;;;47.63;5.97;;;8.00;99.90;;;;;;4977358;28;20035;-70
2023/01/05 04:10:26;;;;;;;52.05;5.85;;;8.00;99.90;;;;;;4977050;28;20037;-69
2023/01/05 04:12:52;;;;;;;44.67;5.90;;;8.10;99.90;;;;;;4977002;28;20031;-70
2023/01/05 04:15:18;;;;;;;47.78;6.40;;;8.10;99.90;;;;;;4976902;28;20070;-69
2023/01/05 04:17:43;;;;;;;36.78;5.72;;;8.10;99.90;;;;;;4977131;28;20027;-70
2023/01/05 04:20:09;;;;;;;42.80;7.22;;;8.10;99.90;;;;;;4976879;28;20029;-69
2023/01/05 04:22:35;;;;;;;52.20;8.07;;;8.10;99.90;;;;;;4977089;28;20029;-70
2023/01/05 04:25:00;;;;;;;40.70;5.88;;;8.10;99.90;;;;;;4977136;28;20492;-69
2023/01/05 04:27:26;;;;;;;45.00;6.65;;;8.10;99.90;;;;;;4976683;28;20031;-70
2023/01/05 04:29:51;;;;;;;36.42;4.43;;;8.10;99.90;;;;;;4977089;28;20475;-69
2023/01/05 04:32:17;;;;;;;41.28;5.15;;;8.00;99.90;;;;;;4976996;28;20101;-69
2023/01/05 04:34:42;;;;;;;51.80;7.28;;;8.00;99.90;;;;;;4976562;28;20030;-69
2023/01/05 04:37:08;;;;;;;52.85;5.35;;;8.00;99.90;;;;;;4976779;28;20415;-70
2023/01/05 04:39:34;;;;;;;46.58;6.43;;;8.10;99.90;;;;;;4976606;28;20078;-69
2023/01/05 04:41:59;;;;;;;37.80;5.45;;;8.10;99.90;;;;;;4976489;28;20042;-69
2023/01/05 04:44:25;;;;;;;42.50;5.75;;;7.90;99.90;;;;;;4976454;28;20029;-70
2023/01/05 04:46:50;;;;;;;44.92;7.00;;;7.90;99.90;;;;;;4976241;28;20027;-70
2023/01/05 04:49:16;;;;;;;47.38;6.68;;;7.90;99.90;;;;;;4976238;28;20486;-69
2023/01/05 04:51:41;;;;;;;54.58;7.22;;;7.80;99.90;;;;;;4976847;28;20034;-69
2023/01/05 04:54:07;;;;;;;44.30;6.82;;;7.80;99.90;;;;;;4976265;28;20034;-70
2023/01/05 04:56:32;;;;;;;49.70;5.80;;;7.80;99.90;;;;;;4976449;28;20027;-69
2023/01/05 04:58:58;;;;;;;44.85;6.18;;;7.80;99.90;;;;;;4976679;28;20027;-70
2023/01/05 05:01:23;;;;;;;44.03;6.22;;;7.80;99.90;;;;;;4976150;28;20038;-69
2023/01/05 05:03:49;;;;;;;51.10;5.53;;;7.90;99.90;;;;;;4976097;28;20030;-69
2023/01/05 05:06:16;;;;;;;72.47;6.85;;;7.90;99.90;;;;;;4976015;28;20033;-69
2023/01/05 05:08:42;;;;;;;53.42;6.50;;;7.80;99.90;;;;;;4975940;28;20402;-70
2023/01/05 05:11:07;;;;;;;46.55;7.70;;;7.80;99.90;;;;;;4975966;28;20026;-69
2023/01/05 05:13:33;;;;;;;48.83;6.47;;;7.80;99.90;;;;;;4975879;28;20035;-70
2023/01/05 05:15:59;;;;;;;36.40;5.10;;;7.90;99.90;;;;;;4975803;28;20050;-69
2023/01/05 05:18:24;;;;;;;55.63;7.90;;;7.70;99.90;;;;;;4968684;28;20106;-71
2023/01/05 05:20:51;;;;;;;52.20;8.23;;;7.70;99.90;;;;;;4975622;28;20490;-70
2023/01/05 05:23:17;;;;;;;64.80;7.28;;;7.80;99.90;;;;;;4957220;28;20054;-70
2023/01/05 05:25:43;;;;;;;50.72;7.22;;;7.80;99.90;;;;;;4956449;28;20035;-70
2023/01/05 05:28:08;;;;;;;45.85;5.78;;;7.70;99.90;;;;;;4956134;28;20407;-70
2023/01/05 05:30:36;;;;;;;48.35;7.97;;;7.60;99.90;;;;;;4956303;29;20527;-69
2023/01/05 05:33:01;;;;;;;45.13;6.20;;;7.60;99.90;;;;;;4970517;28;20033;-70
2023/01/05 05:35:27;;;;;;;49.42;7.30;;;7.60;99.90;;;;;;4975430;28;20113;-69
2023/01/05 05:37:52;;;;;;;46.60;8.85;;;7.70;99.90;;;;;;4975157;28;20062;-71
2023/01/05 05:40:18;;;;;;;56.20;6.20;;;7.80;99.90;;;;;;4975408;28;20118;-69
2023/01/05 05:42:43;;;;;;;58.92;8.98;;;7.80;99.90;;;;;;4975496;28;20101;-69
2023/01/05 05:45:09;;;;;;;42.90;6.22;;;7.80;99.90;;;;;;4974878;28;20508;-70
2023/01/05 05:47:34;;;;;;;49.75;9.18;;;7.70;99.90;;;;;;4975172;28;20039;-70
2023/01/05 05:50:00;;;;;;;43.50;6.25;;;7.60;99.90;;;;;;4975526;28;20038;-70
2023/01/05 05:52:26;;;;;;;32.08;5.35;;;7.50;99.90;;;;;;4975213;28;20027;-69
2023/01/05 05:54:51;;;;;;;33.45;5.07;;;7.40;99.90;;;;;;4975089;28;20446;-70
2023/01/05 05:57:17;;;;;;;20.88;4.00;;;7.30;99.90;;;;;;4975579;28;20034;-69
2023/01/05 05:59:42;;;;;;;24.08;3.70;;;7.20;99.90;;;;;;4974566;28;20026;-70
2023/01/05 06:02:08;;;;;;;16.45;3.45;;;7.20;99.90;;;;;;4974893;28;20498;-71
2023/01/05 06:04:34;;;;;;;21.55;3.17;;;7.00;99.90;;;;;;4975266;28;20364;-69
2023/01/05 06:06:59;;;;;;;26.30;3.25;;;6.80;99.90;;;;;;4975100;28;20113;-69
2023/01/05 06:09:25;;;;;;;22.20;3.53;;;6.70;99.90;;;;;;4974920;28;20033;-70
2023/01/05 06:11:51;;;;;;;20.80;2.70;;;6.50;99.90;;;;;;4974900;28;20019;-69
2023/01/05 06:14:16;;;;;;;14.63;2.88;;;6.30;99.90;;;;;;4974995;28;20423;-69
2023/01/05 06:16:42;;;;;;;14.73;2.67;;;6.10;99.90;;;;;;4974986;28;20026;-69
2023/01/05 06:19:08;;;;;;;7.82;1.77;;;5.90;99.90;;;;;;4974631;28;20106;-70
2023/01/05 06:21:34;;;;;;;15.45;1.88;;;5.70;99.90;;;;;;4975001;28;20497;-69
2023/01/05 06:23:59;;;;;;;15.70;1.90;;;5.50;99.90;;;;;;4974610;28;20023;-70
2023/01/05 06:26:25;;;;;;;5.75;1.95;;;5.30;99.90;;;;;;4974622;28;20026;-70
2023/01/05 06:28:50;;;;;;;9.23;2.10;;;5.20;99.90;;;;;;4974600;28;20260;-69
2023/01/05 06:31:16;;;;;;;12.60;1.17;;;5.10;99.90;;;;;;4974271;28;20043;-70
2023/01/05 06:33:41;;;;;;;11.02;1.90;;;5.00;99.90;;;;;;4974543;28;20038;-70
2023/01/05 06:36:07;;;;;;;10.10;1.73;;;5.00;99.90;;;;;;4974781;28;20034;-69
2023/01/05 06:38:33;;;;;;;4.18;1.20;;;4.90;99.90;;;;;;4974772;28;20027;-69
2023/01/05 06:40:58;;;;;;;7.93;1.50;;;4.80;99.90;;;;;;4974501;28;20102;-69
2023/01/05 06:43:24;;;;;;;15.10;2.63;;;4.80;99.90;;;;;;4974214;28;20038;-70
2023/01/05 06:45:50;;;;;;;16.35;3.00;;;4.70;99.90;;;;;;4974741;28;20101;-69
2023/01/05 06:48:15;;;;;;;16.20;3.33;;;4.70;99.90;;;;;;4974213;28;20045;-70
2023/01/05 06:50:41;;;;;;;16.60;1.65;;;4.60;99.90;;;;;;4973285;28;20583;-69
2023/01/05 06:53:06;;;;;;;14.55;2.40;;;4.60;99.90;;;;;;4974071;28;20067;-70
2023/01/05 06:55:32;;;;;;;11.15;1.88;;;4.50;99.90;;;;;;4974316;28;20502;-69
2023/01/05 06:57:57;;;;;;;7.47;2.08;;;4.50;99.90;;;;;;4974532;28;20101;-70
2023/01/05 07:00:23;;;;;;;14.80;2.22;;;4.40;99.90;;;;;;4974364;28;20382;-69
2023/01/05 07:02:49;;;;;;;12.90;1.75;;;4.40;99.90;;;;;;4974157;28;20030;-70
2023/01/05 07:05:14;;;;;;;16.33;2.20;;;4.30;99.90;;;;;;4974480;28;20445;-70
2023/01/05 07:07:40;;;;;;;11.60;2.10;;;4.30;99.90;;;;;;4974196;28;20033;-69
2023/01/05 07:10:06;;;;;;;12.93;2.05;;;4.30;99.90;;;;;;4974649;28;20043;-69
2023/01/05 07:12:32;;;;;;;10.52;1.70;;;4.20;99.90;;;;;;4977972;28;20049;-70
2023/01/05 07:14:57;;;;;;;10.20;2.05;;;4.10;99.90;;;;;;4978265;28;20034;-69
2023/01/05 07:17:23;;;;;;;19.67;2.15;;;4.10;99.90;;;;;;4977959;28;20070;-69
2023/01/05 07:19:48;;;;;;;13.25;2.25;;;4.10;99.90;;;;;;4977810;28;20108;-70
2023/01/05 07:22:14;;;;;;;11.52;2.45;;;4.00;99.90;;;;;;4978248;28;20495;-69
2023/01/05 07:24:39;;;;;;;19.77;2.97;;;4.00;99.90;;;;;;4977749;28;20384;-70
2023/01/05 07:27:06;;;;;;;19.42;2.53;;;4.00;99.90;;;;;;4977766;28;20109;-69
2023/01/05 07:29:32;;;;;;;21.10;2.83;;;4.00;99.90;;;;;;4977821;28;20023;-69
2023/01/05 07:31:58;;;;;;;24.33;4.05;;;3.90;99.90;;;;;;4971776;28;20034;-69
2023/01/05 07:34:23;;;;;;;24.35;3.28;;;3.90;99.90;;;;;;4958736;28;20035;-69
2023/01/05 07:36:49;;;;;;;24.38;4.13;;;3.90;99.90;;;;;;4972117;28;20041;-70
2023/01/05 07:39:15;;;;;;;17.42;2.25;;;3.90;99.90;;;;;;4977908;28;20029;-69
2023/01/05 07:41:40;;;;;;;18.65;4.28;;;3.90;99.90;;;;;;4977992;28;20475;-69
2023/01/05 07:44:06;;;;;;;20.85;4.57;;;3.80;99.90;;;;;;4977493;28;20031;-70
2023/01/05 07:46:32;;;;;;;13.98;3.40;;;3.80;99.90;;;;;;4977613;28;20031;-70
2023/01/05 07:48:58;;;;;;;15.27;4.55;;;3.80;99.90;;;;;;4977392;28;20402;-69
2023/01/05 07:51:24;;;;;;;29.52;5.63;;;3.80;99.90;;;;;;4977395;28;20023;-70
2023/01/05 07:53:50;;;;;;;22.05;7.45;;;3.90;99.90;;;;;;4977418;28;20038;-69
2023/01/05 07:56:18;;;;;;;24.75;4.55;;;3.90;99.90;;;;;;4977531;28;20057;-69
2023/01/05 07:58:43;;;;;;;31.33;3.53;;;3.90;99.90;;;;;;4977214;28;20027;-70
2023/01/05 08:01:11;;;;;;;29.80;3.83;;;4.10;99.90;;;;;;4976844;28;20085;-70
2023/01/05 08:03:37;;;;;;;22.40;3.13;;;4.10;99.90;;;;;;4977498;28;20027;-69
2023/01/05 08:06:12;;;;;;;31.88;3.58;;;4.10;99.90;;;;;;4977428;28;20126;-69
2023/01/05 08:08:38;;;;;;;23.70;4.10;;;4.10;99.90;;;;;;4977175;28;20111;-69
2023/01/05 08:11:09;;;;;;;17.00;3.60;;;4.10;99.90;;;;;;4977330;28;20113;-69
2023/01/05 08:16:18;;;;;;;14.20;2.83;;;4.10;99.90;;;;;;4977175;28;20411;-69
2023/01/05 08:18:44;;;;;;;31.02;4.70;;;4.10;99.90;;;;;;4976833;28;20031;-69
2023/01/05 08:21:09;;;;;;;20.58;2.90;;;4.20;99.90;;;;;;4976903;28;20059;-69
2023/01/05 08:23:37;;;;;;;24.58;2.75;;;4.30;99.90;;;;;;4976123;28;20534;-69
2023/01/05 08:26:08;;;;;;;24.00;2.92;;;4.50;99.90;;;;;;4976814;28;20031;-69
2023/01/05 08:28:35;;;;;;;15.25;3.72;;;4.60;99.90;;;;;;4976504;28;20026;-70
2023/01/05 08:31:13;;;;;;;21.42;2.67;;;4.60;99.90;;;;;;4976980;28;20027;-68
2023/01/05 08:33:38;;;;;;;28.90;3.50;;;4.70;99.90;;;;;;4976987;28;20390;-69
2023/01/05 08:36:16;;;;;;;24.02;3.60;;;4.70;99.90;;;;;;4976506;28;20026;-69
2023/01/05 08:38:48;;;;;;;19.52;3.08;;;4.70;99.90;;;;;;4976633;28;20022;-69
2023/01/05 08:41:18;;;;;;;20.73;3.03;;;4.70;99.90;;;;;;4976449;28;20019;-70
2023/01/05 08:43:52;;;;;;;22.23;3.55;;;4.70;99.90;;;;;;4975189;28;20027;-70
2023/01/05 08:46:20;;;;;;;24.95;3.67;;;4.80;99.90;;;;;;4976759;28;20043;-69
2023/01/05 08:48:50;;;;;;;24.48;4.00;;;4.80;99.90;;;;;;4976183;28;20114;-70
2023/01/05 08:51:17;;;;;;;23.17;6.38;;;4.80;99.90;;;;;;4976007;28;20031;-70
2023/01/05 08:53:42;;;;;;;29.70;4.13;;;4.80;99.90;;;;;;4975705;28;20031;-70
2023/01/05 08:56:09;;;;;;;22.00;5.35;;;4.80;99.90;;;;;;4976674;28;20089;-69
2023/01/05 08:58:38;;;;;;;13.63;3.67;;;4.90;99.90;;;;;;4976351;28;20030;-70
2023/01/05 09:01:16;;;;;;;18.73;2.67;;;4.90;99.90;;;;;;4976341;28;20034;-70
2023/01/05 09:03:42;;;;;;;25.10;4.53;;;5.00;99.90;;;;;;4976067;28;20042;-70
2023/01/05 09:06:10;;;;;;;17.80;3.63;;;5.00;99.90;;;;;;4975995;28;20034;-70
2023/01/05 09:08:37;;;;;;;19.40;3.67;;;5.00;99.90;;;;;;4975985;28;20034;-70
2023/01/05 09:11:13;;;;;;;19.13;3.25;;;5.10;99.90;;;;;;4976113;28;20019;-70
2023/01/05 09:13:44;;;;;;;42.60;4.15;;;5.10;99.90;;;;;;4975636;28;20027;-70
2023/01/05 09:16:12;;;;;;;20.88;2.95;;;5.10;99.90;;;;;;4976101;28;20037;-69
2023/01/05 09:18:39;;;;;;;23.33;4.07;;;5.10;99.90;;;;;;4975550;28;20494;-70
2023/01/05 09:21:05;;;;;;;21.50;2.75;;;5.10;99.90;;;;;;4975549;28;20042;-70
2023/01/05 09:23:31;;;;;;;33.28;4.10;;;5.20;99.90;;;;;;4975156;28;20022;-70
2023/01/05 09:25:57;;;;;;;26.92;3.63;;;5.20;99.90;;;;;;4975521;28;20038;-70
2023/01/05 09:28:22;;;;;;;30.23;8.38;;;5.30;99.90;;;;;;4975585;28;20035;-70
2023/01/05 09:30:48;;;;;;;30.25;10.23;;;5.40;99.90;;;;;;4975757;28;20030;-70
2023/01/05 09:33:14;;;;;;;134.85;69.30;;;5.30;99.90;;;;;;4975208;28;20086;-69
2023/01/05 09:35:39;;;;;;;47.55;12.90;;;5.30;99.90;;;;;;4974798;28;20023;-69
2023/01/05 09:38:05;;;;;;;19.52;4.30;;;5.30;99.90;;;;;;4975436;28;20034;-70
2023/01/05 09:40:37;;;;;;;17.27;3.95;;;5.30;99.90;;;;;;4975705;28;20026;-70
2023/01/05 09:43:03;;;;;;;20.07;3.40;;;5.30;99.90;;;;;;4976159;28;20502;-70
2023/01/05 09:45:29;;;;;;;26.17;4.32;;;5.30;99.90;;;;;;4975022;28;20034;-70
2023/01/05 09:47:56;;;;;;;23.98;2.88;;;5.30;99.90;;;;;;5030331;23;20069;-68
2023/01/05 09:50:24;;;;;;;19.30;2.67;;;5.30;99.90;;;;;;4976094;28;20019;-68
2023/01/05 09:52:53;;;;;;;26.98;4.20;;;5.30;99.90;;;;;;4975549;28;20023;-69
2023/01/05 09:55:22;;;;;;;26.10;3.97;;;5.30;99.90;;;;;;4975566;28;20038;-68
2023/01/05 09:57:57;;;;;;;51.50;18.05;;;5.40;99.90;;;;;;4974946;28;20019;-69
2023/01/05 10:00:25;;;;;;;26.90;6.45;;;5.40;99.90;;;;;;4975073;28;20030;-69
2023/01/05 10:03:19;;;;;;;22.33;4.38;;;5.40;99.90;;;;;;4975218;28;20025;-69
2023/01/05 10:05:47;;;;;;;23.20;3.90;;;5.40;99.90;;;;;;4975389;28;20038;-69
2023/01/05 10:08:18;;;;;;;25.17;3.63;;;5.40;99.90;;;;;;4975069;28;20030;-69
2023/01/05 10:13:50;;;;;;;26.25;3.42;;;5.40;99.90;;;;;;4975401;28;20054;-69
2023/01/05 10:16:16;;;;;;;20.67;4.97;;;5.50;99.90;;;;;;4975446;28;20117;-69
2023/01/05 10:18:42;;;;;;;15.85;2.50;;;5.50;99.90;;;;;;4974790;28;20099;-69
2023/01/05 10:21:26;;;;;;;23.17;5.22;;;5.50;99.90;;;;;;4974935;28;20035;-69
2023/01/05 10:23:57;;;;;;;23.23;3.10;;;5.60;99.90;;;;;;4975314;28;20027;-69
2023/01/05 10:26:29;;;;;;;16.25;2.60;;;5.60;99.90;;;;;;4975197;28;20045;-68
2023/01/05 10:29:12;;;;;;;20.70;4.88;;;5.60;99.90;;;;;;4975122;28;20023;-68
2023/01/05 10:31:46;;;;;;;14.80;2.83;;;5.70;99.90;;;;;;4974990;28;20029;-68
2023/01/05 10:34:49;;;;;;;24.42;5.93;;;5.60;99.90;;;;;;4975050;28;20031;-69
2023/01/05 10:37:43;;;;;;;13.52;2.25;;;5.70;99.90;;;;;;4975015;28;20042;-69
2023/01/05 10:40:50;;;;;;;10.05;1.80;;;5.70;99.90;;;;;;4974714;28;20038;-69
2023/01/05 10:43:37;;;;;;;22.17;2.28;;;5.80;99.90;;;;;;4972748;28;20372;-69
2023/01/05 10:46:06;;;;;;;19.23;2.28;;;5.80;99.90;;;;;;4972156;28;20031;-69
2023/01/05 10:48:34;;;;;;;20.50;2.92;;;5.80;99.90;;;;;;4961235;28;20046;-69
2023/01/05 10:51:00;;;;;;;11.95;2.13;;;5.70;99.90;;;;;;4955360;28;20027;-69
2023/01/05 10:53:27;;;;;;;16.65;2.38;;;5.70;99.90;;;;;;4955286;28;20019;-68
2023/01/05 10:55:56;;;;;;;19.00;2.60;;;5.70;99.90;;;;;;4956942;28;20459;-69
2023/01/05 10:58:26;;;;;;;8.93;1.90;;;5.70;99.90;;;;;;4974460;28;20162;-69
2023/01/05 11:00:55;;;;;;;37.00;13.13;;;5.70;99.90;;;;;;4972945;28;20109;-69
2023/01/05 11:03:26;;;;;;;14.00;4.07;;;5.80;99.90;;;;;;4974504;28;20549;-69
2023/01/05 11:05:52;;;;;;;19.88;3.72;;;5.80;99.90;;;;;;4973154;28;20031;-69
2023/01/05 11:08:21;;;;;;;26.88;2.70;;;5.80;99.90;;;;;;4973594;28;20034;-69
2023/01/05 11:10:52;;;;;;;25.75;3.33;;;5.80;99.90;;;;;;4974556;28;20041;-69
2023/01/05 11:13:27;;;;;;;23.33;2.63;;;5.80;99.90;;;;;;4974301;28;20034;-69
2023/01/05 11:15:55;;;;;;;23.30;3.03;;;5.90;99.90;;;;;;4974657;28;20031;-69
2023/01/05 11:18:38;;;;;;;10.70;2.53;;;6.00;99.90;;;;;;4974256;28;20114;-69
2023/01/05 11:21:13;;;;;;;20.67;2.65;;;5.90;99.90;;;;;;4974620;28;20031;-69
2023/01/05 11:23:49;;;;;;;18.13;3.00;;;5.80;99.90;;;;;;4974660;28;20394;-69
2023/01/05 11:26:17;;;;;;;17.15;2.70;;;5.90;99.90;;;;;;4974630;28;20050;-69
2023/01/05 11:29:01;;;;;;;14.63;3.90;;;5.90;99.90;;;;;;4974189;28;20027;-69
2023/01/05 11:31:58;;;;;;;16.50;2.42;;;6.00;99.90;;;;;;4960621;28;20118;-69
2023/01/05 11:34:56;;;;;;;14.57;3.85;;;6.00;99.90;;;;;;4962615;28;20030;-69
2023/01/05 11:37:27;;;;;;;24.65;2.88;;;6.00;99.90;;;;;;4966586;28;20049;-69
2023/01/05 11:39:54;;;;;;;16.23;2.05;;;6.00;99.90;;;;;;4959781;28;20484;-69
2023/01/05 11:42:30;;;;;;;15.30;2.38;;;5.90;99.90;;;;;;4961910;28;20171;-69
2023/01/05 11:45:03;;;;;;;25.92;4.20;;;6.00;99.90;;;;;;4963692;28;20016;-69
2023/01/05 11:47:32;;;;;;;38.72;10.25;;;6.10;99.90;;;;;;4964478;28;20683;-69
2023/01/05 11:50:13;;;;;;;27.42;2.88;;;6.10;99.90;;;;;;4965466;28;20035;-69
2023/01/05 11:52:44;;;;;;;24.17;2.70;;;6.00;99.90;;;;;;4964884;28;20383;-69
2023/01/05 11:55:19;;;;;;;23.00;2.08;;;6.00;99.90;;;;;;4960954;28;20039;-69
2023/01/05 11:57:48;;;;;;;9.93;3.15;;;6.10;99.90;;;;;;4957651;28;20031;-69
2023/01/05 12:00:31;;;;;;;14.00;2.05;;;6.10;99.90;;;;;;4961009;28;20030;-69
2023/01/05 12:03:06;;;;;;;18.45;2.25;;;6.10;99.90;;;;;;4961149;28;20027;-69
2023/01/05 12:05:43;;;;;;;13.25;1.95;;;6.20;99.90;;;;;;4977235;28;20046;-69
2023/01/05 12:08:22;;;;;;;16.88;2.55;;;6.40;99.90;;;;;;4976725;28;20027;-68
2023/01/05 12:11:02;;;;;;;15.07;1.60;;;6.30;99.90;;;;;;4977326;28;20165;-68
2023/01/05 12:13:40;;;;;;;12.55;3.65;;;6.30;99.90;;;;;;4977380;28;20027;-69
2023/01/05 12:16:44;;;;;;;10.30;1.88;;;6.40;99.90;;;;;;4976805;28;20031;-69
2023/01/05 12:19:40;;;;;;;26.88;5.68;;;6.50;99.90;;;;;;4976819;28;20069;-68
2023/01/05 12:22:28;;;;;;;20.33;7.60;;;6.50;99.90;;;;;;4977029;28;20085;-69
2023/01/05 12:25:25;;;;;;;27.63;5.10;;;6.50;99.90;;;;;;4977069;28;20479;-69
2023/01/05 12:28:04;;;;;;;20.27;2.90;;;6.50;99.90;;;;;;4976747;28;20521;-69
2023/01/05 12:30:54;;;;;;;24.90;4.78;;;6.50;99.90;;;;;;4976619;28;20023;-69
2023/01/05 12:33:38;;;;;;;11.77;2.08;;;6.50;99.90;;;;;;4976753;28;20106;-69
2023/01/05 12:36:38;;;;;;;23.13;3.20;;;6.50;99.90;;;;;;4965552;28;20026;-69
2023/01/05 12:39:42;;;;;;;17.02;2.75;;;6.70;99.90;;;;;;4976520;28;20019;-68
2023/01/05 12:42:28;;;;;;;23.58;2.03;;;6.90;99.90;;;;;;4975656;28;20042;-69
2023/01/05 12:45:24;;;;;;;19.15;2.33;;;6.90;99.90;;;;;;4965952;28;20035;-68
2023/01/05 12:48:17;;;;;;;19.05;2.83;;;7.00;99.90;;;;;;4957285;28;20070;-68
2023/01/05 12:50:51;;;;;;;20.65;3.13;;;7.10;99.90;;;;;;4963444;28;20078;-68
2023/01/05 12:53:34;;;;;;;;;;;7.20;99.90;;;;;;4977213;28;20082;-69
2023/01/05 12:56:15;;;;;;;23.47;2.30;;;7.40;99.90;;;;;;4976181;28;19921;-68
2023/01/05 12:59:01;;;;;;;6.63;1.25;;;7.40;99.90;;;;;;4976353;28;20031;-68
2023/01/05 13:01:30;;;;;;;16.90;2.28;;;7.30;99.90;;;;;;4976650;28;20029;-68
2023/01/05 13:04:01;;;;;;;7.35;1.45;;;7.20;99.90;;;;;;4976301;28;20018;-68
2023/01/05 13:06:34;;;;;;;21.70;2.03;;;7.30;99.90;;;;;;4976601;28;20510;-69
2023/01/05 13:09:12;;;;;;;13.13;1.70;;;7.50;99.90;;;;;;4976072;28;20048;-68
2023/01/05 13:11:44;;;;;;;11.30;1.95;;;7.40;99.90;;;;;;4976459;28;20030;-68
2023/01/05 13:14:19;;;;;;;9.65;1.75;;;7.60;99.90;;;;;;4976112;28;20446;-68
2023/01/05 13:16:51;;;;;;;10.65;1.40;;;7.70;99.90;;;;;;4975944;28;20023;-69
2023/01/05 13:19:27;;;;;;;13.00;2.25;;;8.10;99.90;;;;;;4975870;28;20110;-69
2023/01/05 13:21:53;;;;;;;13.15;2.72;;;8.30;99.90;;;;;;4976332;28;20019;-69
2023/01/05 13:24:31;;;;;;;7.60;1.60;;;8.20;99.90;;;;;;4975790;28;20019;-68
2023/01/05 13:26:58;;;;;;;21.92;2.90;;;8.40;99.90;;;;;;4976137;28;20110;-68
2023/01/05 13:29:28;;;;;;;15.48;1.60;;;8.60;99.90;;;;;;4975645;28;20027;-69
2023/01/05 13:32:22;;;;;;;10.50;1.70;;;8.30;99.90;;;;;;4975886;28;20031;-69
2023/01/05 13:35:14;;;;;;;9.00;1.60;;;8.00;99.90;;;;;;4975858;28;20081;-68
2023/01/05 13:38:05;;;;;;;12.07;1.90;;;7.60;99.90;;;;;;4975784;28;20037;-68
2023/01/05 13:40:50;;;;;;;14.55;2.25;;;7.60;99.90;;;;;;4975705;28;20486;-68
2023/01/05 13:43:24;;;;;;;16.73;2.13;;;7.20;99.90;;;;;;4971207;28;20398;-68